Ted Stevens Anchorage International Airport
PANC : now visible

Airfield :











YOU CAN JOIN US ON...

 
LOGIN :

Register | Disclaimer

   EN    FR    IT 

 









Legend :    VFR   Marginal VFR   IFR   Intensive IFR   Very Intensive IFR
Visi :
Ceiling :
>= 8 km
>= 3000ft
5 to 8 km
1000 to 3000 ft
1500m to 5 km
500 to 1000 ft
800 to 1500m
200 to 500 ft
< 800m
< 200 ft
Symbols :   Thunderstorms  Fog  Heavy snow  Heavy precipitations  Wind > 20 kt






- Airport Elevation : 152 ft
- IATA code : ANC


PANC - Ted Stevens Anchorage International

CURRENT METAR :
  • 311553Z 02005KT 10SM CLR M10/M14 A2980 RMK AO2 SLP095 T11001144

EXPIRED METARs :
  • 311453Z 02006KT 10SM CLR M09/M14 A2979 RMK AO2 SLP092 T10891144 56002
  • 311353Z 02007KT 10SM CLR M10/M16 A2980 RMK AO2 SLP093 T11001156

TAF PANC
Valid from the 31 at 15:00 until the 01 at 18:00 UTC


311500Z 3115/0118 01010KT P6SM SKC
FM010000 01012G20KT P6SM SKC
PAZA FIR / North America



MET'MAP, your aeronautical weather chart ! - Copyright ORBIFLY December 2007 - Disclaimer

ORBIFLY MET'MAP TEAM :

Programming & Development : Alexandra Zaïnal
Concept & original design : Baudouin d'Aumeries
Assistance for programming : Marc-Olivier Méhu
Technical & hardware support : Manuel Goepfert

Contact : metmap@orbifly.com




SOURCES & CREDITS :

   NOAA       Earth
Advisory